ATW weather

Appleton International Airport
Appleton, Wisconsin, United States

Public forecast

Using degrees Fahrenheit for public forecast. Weather courtesy of forecast.io.

Current aviation weather report (METAR) for Appleton International Airport

Retrieved 2020/07/03 22:45 UTC (16 minutes ago):

KATW 032245Z 22005KT 10SM SCT120 28/17 A3005

Aviation forecast (TAF) for Appleton International Airport

Retrieved 2020/07/03 18:30 UTC (5 hours ago):

TAF KATW 031728Z 0318/0418 06006KT P6SM SCT040 BKN250 FM032200 07006KT P6SM FEW050 SCT250 FM040100 VRB03KT P6SM SKC FM040900 35003KT P6SM SKC TEMPO 0409/0413 5SM BR SCT040 FM041300 04003KT P6SM SCT250 FM041600 11004KT P6SM SCT040 SCT250